EGPM

Details ICAO EGPM (SDZ)
Name Scatsta
Region United Kingdom
Timezone Europe/London (UTC+0.0)
Plans Departing 14
Arriving 19
Stats Elevation 81 ft / 25 m (AMSL)
Location 60.432651° -1.296108°
Runways 1
Magnetic Variation 2.143° W
Sunrise 2017-12-13 09:05:40 UTC / 2017-12-13 09:05:40 Local
Sunset 2017-12-13 14:55:57 UTC / 2017-12-13 14:55:57 Local
Advertisement - Login to hide

Runways

ID Width Length Bearing (true) Bearing (mag) Surface Threshold Offset Overrun Length
06 102 ft / 31 m 4,442 ft / 1,354 m 55.29° 57.43° Asphalt 374 ft / 114 m 0 ft / 0 m
24 102 ft / 31 m 4,442 ft / 1,354 m 235.31° 237.45° Asphalt 308 ft / 94 m 0 ft / 0 m

Map

Weather


0- 5 10 15 20 25 30 35+ Temperature / ° C

Clouds and Precipitation
Forecast for 2017-12-13 12:00 UTC. Updated 36 minutes ago

Ground ~20,000 ft ~40,000 ft Winds

METAR

EGPM 130720Z 22007KT 9999 FEW030 02/M00 Q0979 NOSIG

TAF

Not found

Frequencies

Tower 123.60 MHz Scatsta Approach
Warning: Do not use this data for real-world aviation or navigation. No guarantee of current accuracy is given.